Saturday, February 24, 2018, 9:59 AM CST
Back to Local

KARR, Chicago Aurora Municipal

Location: Sugar Grove, IL, United States Lat: 41.767
Local Time: 9:59 AM CST (15:59 GMT) Lon: -88.467
Time Zone: US/Central Elev: 711 ft

Show me the last for .
Show Decoded

2018-02-24 08:52 METAR KARR 241452Z 08016G21KT 6SM HZ SCT015 OVC090 02/M02 A3013 RMK AO2 SLP210
                 T00171017 56012 =
2018-02-24 07:52 METAR KARR 241352Z 08011KT 6SM BR OVC015 01/M01 A3014 RMK AO2 SLP215 T00111011 =
2018-02-24 07:41 METAR KARR 241341Z 08009KT 6SM BR OVC015 01/M01 A3014 RMK AO2 T00111011 =
2018-02-24 06:52 METAR KARR 241252Z 07012KT 7SM OVC012 01/M01 A3014 RMK AO2 SLP214 T00111011 =
2018-02-24 05:52 METAR KARR 241152Z AUTO 05009KT 7SM OVC012 01/M01 A3017 RMK AO2 SLP222 T00061011
                 10006 21006 58014 =
2018-02-24 04:52 METAR KARR 241052Z AUTO 05009KT 7SM BKN012 OVC095 00/M02 A3018 RMK AO2 SLP227
                 T00001017 =
2018-02-24 03:52 METAR KARR 240952Z AUTO 05008KT 6SM BR CLR 00/M02 A3020 RMK AO2 SLP233 T00001017
                 =
2018-02-24 02:52 METAR KARR 240852Z AUTO 04006KT 6SM BR CLR 00/M02 A3021 RMK AO2 SLP236 T00001017
                 56017 =
2018-02-24 01:52 METAR KARR 240752Z AUTO 01008KT 6SM BR CLR 00/M02 A3021 RMK AO2 SLP238 T00001017
                 =
2018-02-24 00:52 METAR KARR 240652Z AUTO 34009KT 5SM BR CLR 00/M02 A3023 RMK AO2 SLP243 T00001017
                 =
2018-02-23 23:52 METAR KARR 240552Z AUTO 32005KT 4SM BR CLR 00/M01 A3026 RMK AO2 SLP254 T00001011
                 10033 21006 400561006 58003 =
2018-02-23 22:52 METAR KARR 240452Z AUTO 27004KT 5SM BR CLR 00/M01 A3027 RMK AO2 SLP258 T00001011
                 =
2018-02-23 21:52 METAR KARR 240352Z AUTO 24004KT 5SM BR CLR 00/M01 A3028 RMK AO2 SLP261 T00001006
                 =
2018-02-23 21:03 METAR KARR 240303Z AUTO 28004KT 6SM BR SCT018 00/M01 A3027 RMK AO2 T00001011 =
2018-02-23 20:52 METAR KARR 240252Z 29005KT 6SM BR BKN018 01/M01 A3027 RMK AO2 SLP256 T00061006
                 53008 =
2018-02-23 20:18 METAR KARR 240218Z 27006KT 6SM BR BKN018 01/M01 A3026 RMK AO2 T00061006 =
2018-02-23 19:52 METAR KARR 240152Z 26005KT 7SM CLR 01/M01 A3025 RMK AO2 SLP250 T00111006 =
2018-02-23 18:52 METAR KARR 240052Z 25005KT 8SM CLR 02/00 A3025 RMK AO2 SLP251 T00170000 =
2018-02-23 18:17 METAR KARR 240017Z 28007KT 9SM SCT019 02/01 A3025 RMK AO2 T00220006 =
2018-02-23 17:52 METAR KARR 232352Z 27007KT 7SM OVC018 03/01 A3024 RMK AO2 SLP247 T00330011 10039
                 20028 53007 =
2018-02-23 16:52 METAR KARR 232252Z 26009KT 8SM OVC017 03/01 A3023 RMK AO2 SLP244 T00330011 =
2018-02-23 15:52 METAR KARR 232152Z 26010KT 8SM OVC015 04/02 A3022 RMK AO2 SLP238 T00390017 =
2018-02-23 14:52 METAR KARR 232052Z 26015KT 8SM OVC010 03/01 A3022 RMK AO2 CIG 008V013 SLP239
                 T00280011 53009 =
2018-02-23 13:52 METAR KARR 231952Z 27016KT 10SM OVC007 03/02 A3020 RMK AO2 CIG 007V011 SLP233
                 T00280017 =
2018-02-23 12:52 METAR KARR 231852Z 26016KT 9SM OVC008 03/02 A3019 RMK AO2 SLP230 T00330017 =
2018-02-23 11:52 METAR KARR 231752Z 27016KT 9SM OVC008 03/02 A3019 RMK AO2 SLP230 T00330022 10056
                 20033 51025 =
2018-02-23 10:52 METAR KARR 231652Z 26015G22KT 7SM OVC006 03/02 A3018 RMK AO2 SLP225 T00330022 =

Support USWX by starting your Amazon purchase here.